Terminal Aerodrome Forecast
Issued by NWS Portland, OR

Home | Current Version | Previous Version | Text Only | Print | Product List | Glossary On
Versions: 1 2 3 4 5 6 7 8 9 10 11 12 13 14 15 16 17 18 19 20 21 22 23 24 25 26 27 28 29 30 31 32 33 34 35 36 37 38 39 40 41 42 43 44 45 46 47 48 49 50
000
FTUS46 KPQR 201134
TAFHIO
TAF
KHIO 201134Z 2012/2112 20006KT P6SM -SHRA SCT015 BKN060
     FM201600 19010KT P6SM -SHRA BKN022 OVC050
     FM202000 20007KT P6SM -SHRA SCT025 BKN050
     FM202300 22006KT P6SM VCSH BKN045 BKN060
     FM210600 VRB03KT P6SM -RA OVC060=

USA.gov is the U.S. government's official web portal to all federal, state and local government web resources and services.